Time;durP1;ratioP1;P1;durP2;ratioP2;P2;SDS_P1;SDS_P2;PMS_P1;PMS_P2;Temp;Humidity;BMP_temperature;BMP_pressure;BME280_temperature;BME280_humidity;BME280_pressure;Samples;Min_cycle;Max_cycle;Signal;HPM_P1;HPM_P2
2023/05/15 00:02:26;;;;;;;;;;;21.20;67.40;;;;;;5077823;28;19916;-83
2023/05/15 00:04:52;;;;;;;;;;;21.20;67.40;;;;;;5060564;28;20213;-83
2023/05/15 00:07:17;;;;;;;;;;;21.20;67.50;;;;;;5061340;28;20178;-83
2023/05/15 00:09:43;;;;;;;;;;;21.20;67.60;;;;;;5079099;28;19908;-83
2023/05/15 00:12:09;;;;;;;;;;;21.20;67.70;;;;;;5060914;28;19970;-83
2023/05/15 00:14:34;;;;;;;;;;;21.10;67.60;;;;;;5077944;28;19923;-83
2023/05/15 00:17:00;;;;;;;;;;;21.10;67.70;;;;;;5060702;28;19912;-83
2023/05/15 00:19:25;;;;;;;;;;;21.10;67.80;;;;;;5061377;28;19951;-83
2023/05/15 00:21:51;;;;;;;;;;;21.10;67.90;;;;;;5061163;28;19908;-83
2023/05/15 00:24:18;;;;;;;;;;;21.10;68.00;;;;;;5060734;28;20190;-83
2023/05/15 00:26:43;;;;;;;;;;;21.10;68.00;;;;;;5060734;28;19927;-83
2023/05/15 00:29:09;;;;;;;;;;;21.10;68.00;;;;;;5060576;28;19908;-83
2023/05/15 00:31:35;;;;;;;;;;;21.10;68.20;;;;;;5077629;28;19919;-83
2023/05/15 00:34:00;;;;;;;;;;;21.10;68.20;;;;;;5060555;28;19908;-83
2023/05/15 00:36:26;;;;;;;;;;;21.00;68.20;;;;;;5055428;28;19921;-83
2023/05/15 00:38:52;;;;;;;;;;;21.00;68.20;;;;;;5058112;28;20202;-83
2023/05/15 00:41:18;;;;;;;;;;;21.00;68.40;;;;;;5057465;28;19909;-83
2023/05/15 00:43:45;;;;;;;;;;;21.00;68.40;;;;;;5070613;28;19909;-83
2023/05/15 00:46:11;;;;;;;;;;;21.00;68.40;;;;;;5055772;28;20338;-83
2023/05/15 00:48:37;;;;;;;;;;;21.00;68.50;;;;;;5071602;28;19909;-83
2023/05/15 00:51:04;;;;;;;;;;;20.90;68.50;;;;;;5056659;28;19909;-83
2023/05/15 00:53:29;;;;;;;;;;;20.90;68.60;;;;;;5056119;28;19920;-83
2023/05/15 00:55:56;;;;;;;;;;;20.90;68.50;;;;;;5080986;28;19920;-83
2023/05/15 00:58:22;;;;;;;;;;;20.90;68.60;;;;;;5073473;28;19908;-83
2023/05/15 01:00:49;;;;;;;;;;;20.90;68.70;;;;;;5071883;28;19913;-83
2023/05/15 01:03:14;;;;;;;;;;;20.90;68.80;;;;;;5072445;28;20020;-83
2023/05/15 01:05:40;;;;;;;;;;;20.90;68.80;;;;;;5072030;28;19964;-83
2023/05/15 01:08:12;;;;;;;;;;;20.90;68.90;;;;;;5055967;28;19909;-83
2023/05/15 01:10:38;;;;;;;;;;;20.90;68.90;;;;;;5057011;28;19940;-83
2023/05/15 01:13:05;;;;;;;;;;;20.80;68.90;;;;;;5072944;28;19909;-83
2023/05/15 01:15:31;;;;;;;;;;;20.80;69.00;;;;;;5056374;28;19924;-83
2023/05/15 01:17:57;;;;;;;;;;;20.80;69.00;;;;;;5073297;28;19909;-83
2023/05/15 01:20:23;;;;;;;;;;;20.80;69.10;;;;;;5057740;28;20235;-83
2023/05/15 01:23:15;;;;;;;;;;;20.80;69.10;;;;;;5072892;28;19908;-83
2023/05/15 01:25:47;;;;;;;;;;;20.80;69.20;;;;;;5052946;28;19939;-83
2023/05/15 01:28:18;;;;;;;;;;;20.80;69.30;;;;;;5070633;28;19931;-83
2023/05/15 01:30:46;;;;;;;;;;;20.80;69.30;;;;;;5071618;28;19919;-83
2023/05/15 01:33:42;;;;;;;;;;;20.70;69.20;;;;;;5070308;28;19919;-83
2023/05/15 01:36:15;;;;;;;;;;;20.70;69.30;;;;;;5054030;28;19923;-83
2023/05/15 01:38:43;;;;;;;;;;;20.70;69.40;;;;;;5058947;28;20249;-83
2023/05/15 01:41:16;;;;;;;;;;;20.70;69.40;;;;;;5058912;28;19908;-83
2023/05/15 01:43:44;;;;;;;;;;;20.70;69.50;;;;;;5059385;28;19916;-83
2023/05/15 01:46:13;;;;;;;;;;;20.70;69.40;;;;;;5059679;28;19909;-83
2023/05/15 01:48:40;;;;;;;;;;;20.60;69.50;;;;;;5059133;28;19908;-83
2023/05/15 01:51:06;;;;;;;;;;;20.60;69.60;;;;;;5058554;28;19917;-83
2023/05/15 01:53:33;;;;;;;;;;;20.60;69.60;;;;;;5058741;28;19971;-83
2023/05/15 01:55:59;;;;;;;;;;;20.60;69.60;;;;;;5075242;28;19916;-83
2023/05/15 01:58:25;;;;;;;;;;;20.60;69.70;;;;;;5057757;28;19919;-83
2023/05/15 02:00:51;;;;;;;;;;;20.60;69.70;;;;;;5058063;28;19916;-83
2023/05/15 02:03:17;;;;;;;;;;;20.60;69.80;;;;;;5073046;28;19919;-83
2023/05/15 02:05:44;;;;;;;;;;;20.60;69.80;;;;;;5055040;28;19908;-83
2023/05/15 02:08:11;;;;;;;;;;;20.60;69.90;;;;;;5072436;28;19920;-83
2023/05/15 02:10:36;;;;;;;;;;;20.50;69.90;;;;;;5072892;28;19916;-83
2023/05/15 02:13:02;;;;;;;;;;;20.50;69.90;;;;;;5053100;28;19919;-83
2023/05/15 02:15:28;;;;;;;;;;;20.50;69.90;;;;;;5053848;28;19920;-83
2023/05/15 02:17:54;;;;;;;;;;;20.50;70.00;;;;;;5072341;28;19999;-83
2023/05/15 02:20:20;;;;;;;;;;;20.50;70.00;;;;;;5055458;28;20186;-83
2023/05/15 02:22:45;;;;;;;;;;;20.50;70.00;;;;;;5055981;28;19909;-83
2023/05/15 02:25:11;;;;;;;;;;;20.50;70.00;;;;;;5073788;28;20266;-83
2023/05/15 02:27:44;;;;;;;;;;;20.50;70.10;;;;;;5057023;28;19934;-83
2023/05/15 02:30:10;;;;;;;;;;;20.40;70.00;;;;;;5073110;28;19908;-83
2023/05/15 02:32:42;;;;;;;;;;;20.40;70.10;;;;;;5057065;28;19909;-83
2023/05/15 02:35:07;;;;;;;;;;;20.40;70.10;;;;;;5057871;28;19965;-83
2023/05/15 02:37:34;;;;;;;;;;;20.40;70.20;;;;;;5054557;28;20019;-83
2023/05/15 02:40:00;;;;;;;;;;;20.40;70.20;;;;;;5071662;28;19909;-83
2023/05/15 02:42:27;;;;;;;;;;;20.40;70.20;;;;;;5070457;28;19923;-83
2023/05/15 02:44:56;;;;;;;;;;;20.40;70.30;;;;;;5070917;28;20378;-83
2023/05/15 02:47:22;;;;;;;;;;;20.40;70.30;;;;;;5054187;28;20007;-83
2023/05/15 02:49:48;;;;;;;;;;;20.40;70.40;;;;;;5072201;28;19916;-83
2023/05/15 02:52:14;;;;;;;;;;;20.40;70.40;;;;;;5055287;28;20180;-83
2023/05/15 02:54:40;;;;;;;;;;;20.30;70.40;;;;;;5055407;28;19908;-83
2023/05/15 02:57:06;;;;;;;;;;;20.40;70.50;;;;;;5071188;28;19909;-83
2023/05/15 02:59:32;;;;;;;;;;;20.30;70.50;;;;;;5071227;28;20340;-83
2023/05/15 03:01:58;;;;;;;;;;;20.30;70.50;;;;;;5070007;28;19908;-83
2023/05/15 03:04:24;;;;;;;;;;;20.30;70.50;;;;;;5071160;28;20046;-83
2023/05/15 03:06:49;;;;;;;;;;;20.30;70.50;;;;;;5052379;28;19967;-83
2023/05/15 03:09:15;;;;;;;;;;;20.30;70.60;;;;;;5069369;28;19909;-83
2023/05/15 03:11:41;;;;;;;;;;;20.30;70.60;;;;;;5053743;28;20096;-83
2023/05/15 03:14:06;;;;;;;;;;;20.30;70.60;;;;;;5069693;28;19920;-83
2023/05/15 03:16:32;;;;;;;;;;;20.30;70.60;;;;;;5070422;28;19913;-83
2023/05/15 03:18:57;;;;;;;;;;;20.30;70.60;;;;;;5054046;28;19909;-83
2023/05/15 03:21:23;;;;;;;;;;;20.20;70.50;;;;;;5068860;28;19931;-83
2023/05/15 03:23:49;;;;;;;;;;;20.30;70.60;;;;;;5068901;28;19920;-83
2023/05/15 03:26:14;;;;;;;;;;;20.20;70.50;;;;;;5068478;28;19948;-83
2023/05/15 03:28:40;;;;;;;;;;;20.30;70.70;;;;;;5068888;28;20295;-83
2023/05/15 03:31:07;;;;;;;;;;;20.20;70.60;;;;;;5053591;28;20317;-83
2023/05/15 03:33:33;;;;;;;;;;;20.20;70.60;;;;;;5053665;28;19905;-83
2023/05/15 03:35:59;;;;;;;;;;;20.20;70.60;;;;;;5070801;28;19920;-83
2023/05/15 03:38:24;;;;;;;;;;;20.20;70.60;;;;;;5056427;28;20157;-83
2023/05/15 03:40:50;;;;;;;;;;;20.20;70.60;;;;;;5056746;28;19919;-83
2023/05/15 03:43:16;;;;;;;;;;;20.20;70.70;;;;;;5057298;28;19913;-83
2023/05/15 03:45:41;;;;;;;;;;;20.20;70.70;;;;;;5056218;28;19909;-83
2023/05/15 03:48:07;;;;;;;;;;;20.20;70.70;;;;;;5054691;28;19917;-83
2023/05/15 03:50:32;;;;;;;;;;;20.20;70.70;;;;;;5057400;28;19920;-83
2023/05/15 03:52:58;;;;;;;;;;;20.20;70.70;;;;;;5057408;28;19955;-83
2023/05/15 03:55:24;;;;;;;;;;;20.20;70.60;;;;;;5057879;28;20038;-83
2023/05/15 03:57:49;;;;;;;;;;;20.20;70.60;;;;;;5060865;28;20178;-83
2023/05/15 04:00:15;;;;;;;;;;;20.20;70.50;;;;;;5059239;28;19973;-83
2023/05/15 04:02:41;;;;;;;;;;;20.20;70.50;;;;;;5075613;28;19909;-83
2023/05/15 04:05:07;;;;;;;;;;;20.10;70.50;;;;;;5057470;28;20385;-83
2023/05/15 04:07:33;;;;;;;;;;;20.10;70.50;;;;;;5058181;28;19909;-83
2023/05/15 04:10:02;;;;;;;;;;;20.10;70.40;;;;;;5058260;28;19939;-83
2023/05/15 04:12:31;;;;;;;;;;;20.10;70.50;;;;;;5055012;28;20101;-83
2023/05/15 04:15:17;;;;;;;;;;;20.10;70.40;;;;;;5054064;28;20312;-83
2023/05/15 04:17:44;;;;;;;;;;;20.10;70.40;;;;;;5054625;28;19912;-83
2023/05/15 04:20:13;;;;;;;;;;;20.20;70.40;;;;;;5055378;28;19916;-83
2023/05/15 04:22:39;;;;;;;;;;;20.20;70.30;;;;;;5054443;28;19919;-83
2023/05/15 04:25:04;;;;;;;;;;;20.20;70.30;;;;;;5054916;28;19909;-83
2023/05/15 04:27:30;;;;;;;;;;;20.20;70.20;;;;;;5057521;28;20196;-83
2023/05/15 04:29:55;;;;;;;;;;;20.20;70.20;;;;;;5061773;28;20061;-84
2023/05/15 04:32:21;;;;;;;;;;;20.20;70.10;;;;;;5072059;28;20120;-84
2023/05/15 04:34:47;;;;;;;;;;;20.20;70.10;;;;;;5069910;28;20037;-84
2023/05/15 04:37:12;;;;;;;;;;;20.20;70.10;;;;;;5049442;28;20133;-83
2023/05/15 04:39:38;;;;;;;;;;;20.20;70.00;;;;;;5051535;28;19909;-83
2023/05/15 04:42:04;;;;;;;;;;;20.10;70.00;;;;;;5051300;28;20309;-83
2023/05/15 04:44:29;;;;;;;;;;;20.10;69.90;;;;;;5068459;28;20203;-83
2023/05/15 04:46:55;;;;;;;;;;;20.10;69.90;;;;;;5051613;28;20015;-83
2023/05/15 04:49:21;;;;;;;;;;;20.20;69.90;;;;;;5052367;28;19920;-84
2023/05/15 04:51:46;;;;;;;;;;;20.20;69.90;;;;;;5068733;28;19927;-83
2023/05/15 04:54:12;;;;;;;;;;;20.20;70.40;;;;;;5068527;28;19909;-83
2023/05/15 04:56:37;;;;;;;;;;;20.20;69.80;;;;;;5069290;28;19913;-83
2023/05/15 04:59:03;;;;;;;;;;;20.20;69.70;;;;;;5053275;28;19909;-83
2023/05/15 05:01:29;;;;;;;;;;;20.20;69.70;;;;;;5050581;28;19921;-83
2023/05/15 05:03:55;;;;;;;;;;;20.20;69.60;;;;;;5051131;28;19909;-83
2023/05/15 05:06:21;;;;;;;;;;;20.20;69.60;;;;;;5051928;28;19924;-83
2023/05/15 05:08:47;;;;;;;;;;;20.20;69.50;;;;;;5067347;28;19909;-83
2023/05/15 05:11:12;;;;;;;;;;;20.20;69.50;;;;;;5067636;28;19920;-83
2023/05/15 05:13:38;;;;;;;;;;;20.20;69.40;;;;;;5068249;28;19970;-83
2023/05/15 05:16:04;;;;;;;;;;;20.20;69.40;;;;;;5049771;28;19923;-83
2023/05/15 05:18:30;;;;;;;;;;;20.20;69.40;;;;;;5067666;28;19909;-83
2023/05/15 05:21:00;;;;;;;;;;;20.20;69.30;;;;;;5052519;28;20160;-83
2023/05/15 05:23:26;;;;;;;;;;;20.20;69.20;;;;;;5066803;28;19908;-83
2023/05/15 05:25:51;;;;;;;;;;;20.20;69.10;;;;;;5047962;28;20078;-83
2023/05/15 05:28:17;;;;;;;;;;;20.20;69.10;;;;;;5065889;28;20164;-83
2023/05/15 05:30:46;;;;;;;;;;;20.30;69.20;;;;;;5065057;28;19908;-83
2023/05/15 05:33:12;;;;;;;;;;;20.30;69.20;;;;;;5047970;28;19908;-83
2023/05/15 05:35:38;;;;;;;;;;;20.30;69.30;;;;;;5045010;28;19920;-83
2023/05/15 05:38:03;;;;;;;;;;;20.30;69.40;;;;;;5062517;28;20243;-83
2023/05/15 05:40:29;;;;;;;;;;;20.30;69.60;;;;;;5060349;28;19909;-83
2023/05/15 05:42:59;;;;;;;;;;;20.30;69.70;;;;;;5061093;28;19909;-83
2023/05/15 05:45:24;;;;;;;;;;;20.30;69.80;;;;;;5062853;28;20124;-83
2023/05/15 05:47:50;;;;;;;;;;;20.30;69.90;;;;;;5042458;28;19921;-83
2023/05/15 05:50:15;;;;;;;;;;;20.30;70.00;;;;;;5044558;28;19908;-84
2023/05/15 05:52:41;;;;;;;;;;;20.30;70.00;;;;;;5059085;28;19909;-84
2023/05/15 05:55:07;;;;;;;;;;;20.30;70.10;;;;;;5058746;28;19979;-83
2023/05/15 05:57:33;;;;;;;;;;;20.30;70.30;;;;;;5059432;28;19916;-83
2023/05/15 05:59:59;;;;;;;;;;;20.30;70.50;;;;;;5058671;28;19974;-83
2023/05/15 06:02:25;;;;;;;;;;;20.30;70.50;;;;;;5061042;28;19909;-83
2023/05/15 06:04:50;;;;;;;;;;;20.30;70.70;;;;;;5061680;28;20259;-83
2023/05/15 06:07:16;;;;;;;;;;;20.30;70.70;;;;;;5043726;28;19909;-83
2023/05/15 06:09:42;;;;;;;;;;;20.30;70.70;;;;;;5059783;28;20457;-83
2023/05/15 06:12:08;;;;;;;;;;;20.30;70.70;;;;;;5043703;28;19912;-83
2023/05/15 06:14:33;;;;;;;;;;;20.30;70.70;;;;;;5062028;28;19909;-83
2023/05/15 06:16:59;;;;;;;;;;;20.40;70.80;;;;;;5062692;28;19946;-83
2023/05/15 06:19:25;;;;;;;;;;;20.40;71.00;;;;;;5045131;28;20358;-83
2023/05/15 06:21:52;;;;;;;;;;;20.30;70.70;;;;;;5046106;28;20092;-83
2023/05/15 06:24:17;;;;;;;;;;;20.40;70.80;;;;;;5045752;28;19959;-84
2023/05/15 06:26:43;;;;;;;;;;;20.40;70.80;;;;;;5062510;28;19952;-83
2023/05/15 06:29:09;;;;;;;;;;;20.40;70.80;;;;;;5060070;28;20234;-83
2023/05/15 06:31:35;;;;;;;;;;;20.40;70.80;;;;;;5058291;28;19919;-84
2023/05/15 06:34:00;;;;;;;;;;;20.40;70.90;;;;;;5060136;28;19909;-84
2023/05/15 06:36:26;;;;;;;;;;;20.50;71.10;;;;;;5060996;28;19917;-84
2023/05/15 06:38:52;;;;;;;;;;;20.50;71.30;;;;;;5042928;28;20273;-84
2023/05/15 06:41:17;;;;;;;;;;;20.50;71.30;;;;;;5044514;28;19919;-84
2023/05/15 06:43:43;;;;;;;;;;;20.50;71.20;;;;;;5045214;28;19909;-84
2023/05/15 06:46:08;;;;;;;;;;;20.50;71.10;;;;;;5050235;28;19927;-84
2023/05/15 06:48:34;;;;;;;;;;;20.50;71.40;;;;;;5046099;28;20175;-83
2023/05/15 06:51:00;;;;;;;;;;;20.50;71.40;;;;;;5046395;28;19956;-83
2023/05/15 06:53:25;;;;;;;;;;;20.50;71.50;;;;;;5044877;28;19963;-83
2023/05/15 06:55:51;;;;;;;;;;;20.60;71.70;;;;;;5043656;28;19913;-83
2023/05/15 06:58:17;;;;;;;;;;;20.60;71.70;;;;;;5043410;28;19909;-83
2023/05/15 07:00:42;;;;;;;;;;;20.60;71.90;;;;;;5042678;28;19932;-83
2023/05/15 07:03:08;;;;;;;;;;;20.60;71.70;;;;;;5041705;28;19913;-83
2023/05/15 07:05:34;;;;;;;;;;;20.70;71.90;;;;;;5044717;28;20180;-83
2023/05/15 07:07:59;;;;;;;;;;;20.70;72.10;;;;;;5047672;28;19919;-83
2023/05/15 07:10:25;;;;;;;;;;;20.70;71.70;;;;;;5046292;28;19909;-82
2023/05/15 07:12:51;;;;;;;;;;;20.70;71.60;;;;;;5046660;28;20180;-82
2023/05/15 07:15:16;;;;;;;;;;;20.80;71.50;;;;;;5049549;28;20195;-83
2023/05/15 07:17:42;;;;;;;;;;;20.80;71.70;;;;;;5044265;28;20098;-83
2023/05/15 07:20:09;;;;;;;;;;;20.80;71.70;;;;;;5045341;28;20006;-83
2023/05/15 07:22:34;;;;;;;;;;;20.80;71.90;;;;;;5044024;28;20028;-83
2023/05/15 07:25:00;;;;;;;;;;;20.70;72.30;;;;;;5044422;28;20015;-83
2023/05/15 07:27:26;;;;;;;;;;;20.70;72.40;;;;;;5048362;28;20068;-82
2023/05/15 07:29:52;;;;;;;;;;;20.70;72.20;;;;;;5046898;28;19920;-83
2023/05/15 07:32:18;;;;;;;;;;;20.80;72.80;;;;;;5046700;28;19990;-83
2023/05/15 07:34:44;;;;;;;;;;;20.80;72.80;;;;;;5047585;28;19916;-83
2023/05/15 07:37:09;;;;;;;;;;;20.80;72.90;;;;;;5060991;28;20226;-82
2023/05/15 07:39:35;;;;;;;;;;;20.80;73.20;;;;;;5052544;28;20194;-83
2023/05/15 07:42:01;;;;;;;;;;;20.70;73.00;;;;;;5050729;28;19909;-82
2023/05/15 07:44:26;;;;;;;;;;;20.70;73.00;;;;;;5051262;28;19908;-83
2023/05/15 07:46:53;;;;;;;;;;;20.70;73.40;;;;;;5067599;28;20358;-82
2023/05/15 07:49:19;;;;;;;;;;;20.70;73.10;;;;;;5049917;28;19978;-82
2023/05/15 07:51:45;;;;;;;;;;;20.80;73.50;;;;;;5051019;28;19908;-82
2023/05/15 07:54:10;;;;;;;;;;;20.80;73.60;;;;;;5050578;28;19909;-82
2023/05/15 07:56:36;;;;;;;;;;;20.80;73.60;;;;;;5050547;28;19939;-82
2023/05/15 07:59:02;;;;;;;;;;;20.80;73.40;;;;;;5059025;28;19909;-82
2023/05/15 08:01:28;;;;;;;;;;;20.80;73.20;;;;;;5054294;28;19915;-82
2023/05/15 08:03:53;;;;;;;;;;;20.90;72.70;;;;;;5053025;28;19909;-82
2023/05/15 08:06:19;;;;;;;;;;;20.90;73.00;;;;;;5051335;28;19917;-82
2023/05/15 08:08:45;;;;;;;;;;;20.90;72.50;;;;;;5070365;28;19912;-82
2023/05/15 08:11:10;;;;;;;;;;;21.00;72.10;;;;;;5054123;28;19919;-82
2023/05/15 08:13:36;;;;;;;;;;;21.10;71.80;;;;;;5051547;28;19981;-82
2023/05/15 08:16:02;;;;;;;;;;;21.20;71.20;;;;;;5051828;28;19981;-82
2023/05/15 08:18:28;;;;;;;;;;;21.20;70.80;;;;;;5069597;28;20070;-82
2023/05/15 08:20:53;;;;;;;;;;;21.30;70.50;;;;;;5050761;28;19936;-82
2023/05/15 08:23:19;;;;;;;;;;;21.40;70.00;;;;;;5051047;28;19909;-82
2023/05/15 08:25:44;;;;;;;;;;;21.50;69.30;;;;;;5052354;28;19989;-83
2023/05/15 08:28:10;;;;;;;;;;;21.70;68.80;;;;;;5051592;28;19908;-82
2023/05/15 08:30:36;;;;;;;;;;;21.80;67.70;;;;;;5069583;28;20065;-82
2023/05/15 08:33:01;;;;;;;;;;;21.90;67.10;;;;;;5053429;28;20263;-82
2023/05/15 08:35:27;;;;;;;;;;;21.90;66.50;;;;;;5053281;28;19959;-82
2023/05/15 08:37:52;;;;;;;;;;;22.00;66.20;;;;;;5047443;28;20144;-84
2023/05/15 08:40:18;;;;;;;;;;;22.40;65.10;;;;;;5046380;28;20037;-83
2023/05/15 08:42:47;;;;;;;;;;;22.80;63.80;;;;;;5046927;28;19919;-83
2023/05/15 08:45:18;;;;;;;;;;;23.10;62.40;;;;;;5047465;28;20198;-83
2023/05/15 08:47:43;;;;;;;;;;;23.20;61.80;;;;;;5045466;28;19909;-83
2023/05/15 08:50:13;;;;;;;;;;;23.10;61.00;;;;;;5045344;28;19920;-83
2023/05/15 08:52:46;;;;;;;;;;;23.20;60.90;;;;;;5047302;28;19913;-83
2023/05/15 08:55:15;;;;;;;;;;;23.90;59.80;;;;;;5047970;28;19939;-83
2023/05/15 08:57:41;;;;;;;;;;;24.80;58.20;;;;;;5046262;28;19913;-83
2023/05/15 09:00:07;;;;;;;;;;;25.20;56.80;;;;;;5044828;28;19909;-83
2023/05/15 09:02:37;;;;;;;;;;;25.70;56.20;;;;;;5048133;28;19908;-83
2023/05/15 09:05:03;;;;;;;;;;;26.20;55.40;;;;;;5046584;28;19910;-83
2023/05/15 09:07:29;;;;;;;;;;;26.60;54.40;;;;;;5047780;28;19913;-83
2023/05/15 09:09:55;;;;;;;;;;;26.90;53.80;;;;;;5046098;28;20086;-83
2023/05/15 09:12:22;;;;;;;;;;;27.00;53.40;;;;;;5046102;28;19912;-83
2023/05/15 09:14:48;;;;;;;;;;;27.20;53.10;;;;;;5045892;28;20066;-83
2023/05/15 09:17:15;;;;;;;;;;;27.30;52.80;;;;;;5044824;28;19908;-83
2023/05/15 09:19:41;;;;;;;;;;;27.50;52.50;;;;;;5045923;28;20093;-83
2023/05/15 09:22:15;;;;;;;;;;;27.60;52.20;;;;;;5048462;28;20004;-83
2023/05/15 09:24:41;;;;;;;;;;;27.20;52.10;;;;;;5046048;28;19909;-83
2023/05/15 09:27:07;;;;;;;;;;;27.20;52.40;;;;;;5045747;28;20112;-83
2023/05/15 09:29:34;;;;;;;;;;;27.80;52.00;;;;;;5044008;28;20000;-84
2023/05/15 09:32:03;;;;;;;;;;;27.80;51.50;;;;;;5046504;28;20245;-83
2023/05/15 09:34:34;;;;;;;;;;;27.40;51.60;;;;;;5047012;28;19924;-84
2023/05/15 09:37:00;;;;;;;;;;;27.00;52.00;;;;;;5043945;28;19917;-83
2023/05/15 09:39:26;;;;;;;;;;;26.60;52.40;;;;;;5044929;28;20030;-83
2023/05/15 09:41:51;;;;;;;;;;;26.30;52.80;;;;;;5045551;28;20152;-83
2023/05/15 09:44:24;;;;;;;;;;;26.10;53.10;;;;;;5046001;28;20012;-83
2023/05/15 09:46:51;;;;;;;;;;;25.90;53.30;;;;;;5046008;28;19916;-83
2023/05/15 09:49:18;;;;;;;;;;;25.60;53.50;;;;;;5044737;28;19920;-83
2023/05/15 09:51:44;;;;;;;;;;;25.40;53.80;;;;;;5046839;28;19920;-83
2023/05/15 09:54:15;;;;;;;;;;;25.40;54.10;;;;;;5046673;28;19915;-83
2023/05/15 09:56:44;;;;;;;;;;;25.50;54.10;;;;;;5045322;28;20171;-83
2023/05/15 09:59:15;;;;;;;;;;;25.50;54.00;;;;;;5044867;28;20033;-83
2023/05/15 10:01:44;;;;;;;;;;;25.50;54.00;;;;;;5048420;28;19997;-83
2023/05/15 10:04:10;;;;;;;;;;;25.50;54.10;;;;;;5048183;28;19919;-84
2023/05/15 10:06:36;;;;;;;;;;;25.50;54.10;;;;;;5046288;28;19909;-83
2023/05/15 10:09:02;;;;;;;;;;;25.50;54.10;;;;;;5047207;28;19989;-83
2023/05/15 10:11:35;;;;;;;;;;;25.50;54.10;;;;;;5047102;28;20271;-83
2023/05/15 10:14:05;;;;;;;;;;;25.50;54.10;;;;;;5044574;28;20309;-84
2023/05/15 10:16:32;;;;;;;;;;;25.60;54.10;;;;;;5046815;28;19920;-83
2023/05/15 10:18:59;;;;;;;;;;;25.60;54.00;;;;;;5043309;28;19920;-84
2023/05/15 10:21:26;;;;;;;;;;;25.70;54.00;;;;;;5044571;28;20210;-84
2023/05/15 10:23:53;;;;;;;;;;;25.60;54.00;;;;;;5044092;28;20268;-84
2023/05/15 10:26:23;;;;;;;;;;;25.60;54.00;;;;;;5039780;28;19917;-83
2023/05/15 10:28:49;;;;;;;;;;;25.60;54.00;;;;;;5046248;28;19908;-84
2023/05/15 10:31:15;;;;;;;;;;;25.60;54.10;;;;;;5046933;28;19912;-84
2023/05/15 10:33:41;;;;;;;;;;;25.60;54.20;;;;;;5047107;28;19949;-84
2023/05/15 10:36:07;;;;;;;;;;;25.50;54.20;;;;;;5064808;28;20172;-84
2023/05/15 10:38:35;;;;;;;;;;;25.40;54.20;;;;;;5066969;28;20111;-83
2023/05/15 10:41:03;;;;;;;;;;;25.40;54.30;;;;;;5046269;28;19926;-83
2023/05/15 10:43:29;;;;;;;;;;;25.40;54.40;;;;;;5049256;28;19908;-84
2023/05/15 10:45:55;;;;;;;;;;;25.30;54.40;;;;;;5049057;28;19909;-84
2023/05/15 10:48:21;;;;;;;;;;;25.30;54.50;;;;;;5067061;28;19994;-83
2023/05/15 10:50:47;;;;;;;;;;;25.30;54.60;;;;;;5050321;28;20066;-83
2023/05/15 10:53:13;;;;;;;;;;;25.20;54.60;;;;;;5046904;28;19919;-83
2023/05/15 10:55:39;;;;;;;;;;;25.20;54.70;;;;;;5063097;28;20201;-84
2023/05/15 10:58:09;;;;;;;;;;;25.20;54.80;;;;;;5044465;28;20135;-84
2023/05/15 11:00:40;;;;;;;;;;;25.10;54.80;;;;;;5044112;28;19918;-84
2023/05/15 11:03:06;;;;;;;;;;;25.10;54.90;;;;;;5044960;28;20264;-83
2023/05/15 11:05:51;;;;;;;;;;;25.10;55.00;;;;;;5047973;28;19908;-83
2023/05/15 11:08:20;;;;;;;;;;;25.00;55.00;;;;;;5047168;28;19913;-84
2023/05/15 11:10:46;;;;;;;;;;;25.00;55.10;;;;;;5049917;28;20179;-84
2023/05/15 11:13:11;;;;;;;;;;;25.00;55.20;;;;;;5049400;28;20289;-83
2023/05/15 11:15:41;;;;;;;;;;;25.00;55.20;;;;;;5052086;28;20078;-83
2023/05/15 11:18:07;;;;;;;;;;;25.00;55.30;;;;;;5051450;28;19908;-83
2023/05/15 11:20:36;;;;;;;;;;;25.00;55.40;;;;;;5068339;28;19985;-83
2023/05/15 11:23:02;;;;;;;;;;;24.90;55.40;;;;;;5049102;28;20286;-83
2023/05/15 11:25:29;;;;;;;;;;;24.90;55.50;;;;;;5050499;28;20084;-83
2023/05/15 11:27:55;;;;;;;;;;;24.90;55.50;;;;;;5049796;28;20178;-83
2023/05/15 11:30:21;;;;;;;;;;;24.90;55.60;;;;;;5054599;28;19919;-83
2023/05/15 11:32:50;;;;;;;;;;;24.90;55.70;;;;;;5058049;28;19909;-84
2023/05/15 11:35:29;;;;;;;;;;;24.80;55.80;;;;;;5049067;28;20221;-83
2023/05/15 11:37:56;;;;;;;;;;;24.80;55.90;;;;;;5045471;28;19927;-83
2023/05/15 11:40:23;;;;;;;;;;;24.80;55.90;;;;;;5066563;28;19909;-83
2023/05/15 11:43:03;;;;;;;;;;;24.80;56.00;;;;;;5065290;28;20029;-83
2023/05/15 11:45:29;;;;;;;;;;;24.70;56.00;;;;;;5067449;28;20228;-83
2023/05/15 11:47:55;;;;;;;;;;;24.70;56.20;;;;;;5066359;28;19912;-83
2023/05/15 11:50:20;;;;;;;;;;;24.60;56.20;;;;;;5065699;28;19919;-83
2023/05/15 11:52:47;;;;;;;;;;;24.60;56.20;;;;;;5067843;28;19935;-83
2023/05/15 11:55:14;;;;;;;;;;;24.60;56.30;;;;;;5064961;28;19912;-84
2023/05/15 11:57:39;;;;;;;;;;;24.60;56.30;;;;;;5067532;28;19923;-83
2023/05/15 12:00:05;;;;;;;;;;;24.60;56.40;;;;;;5065460;28;20053;-84
2023/05/15 12:02:31;;;;;;;;;;;24.60;56.40;;;;;;5081426;28;19909;-83
2023/05/15 12:04:57;;;;;;;;;;;24.60;56.50;;;;;;5083162;28;19923;-83
2023/05/15 12:07:22;;;;;;;;;;;24.60;56.50;;;;;;5067685;28;19909;-84
2023/05/15 12:09:51;;;;;;;;;;;24.60;56.50;;;;;;5069500;28;19925;-83
2023/05/15 12:12:17;;;;;;;;;;;24.60;56.60;;;;;;5065730;28;19973;-83
2023/05/15 12:14:43;;;;;;;;;;;24.50;56.50;;;;;;5083303;28;19916;-83
2023/05/15 12:17:08;;;;;;;;;;;24.60;56.70;;;;;;5063904;28;20386;-83
2023/05/15 12:19:34;;;;;;;;;;;24.50;56.70;;;;;;5066690;28;20260;-83
2023/05/15 12:22:00;;;;;;;;;;;24.50;56.80;;;;;;5065729;28;19965;-83
2023/05/15 12:24:25;;;;;;;;;;;24.50;56.80;;;;;;5062663;28;19916;-83
2023/05/15 12:26:51;;;;;;;;;;;24.50;56.80;;;;;;5080537;28;19908;-83
2023/05/15 12:29:17;;;;;;;;;;;24.60;56.90;;;;;;5083618;28;20240;-80
2023/05/15 12:31:43;;;;;;;;;;;24.60;56.80;;;;;;5065181;28;19908;-80
2023/05/15 12:34:09;;;;;;;;;;;24.60;57.20;;;;;;5064060;28;20050;-81
2023/05/15 12:36:35;;;;;;;;;;;24.60;56.80;;;;;;5058743;28;19971;-82
2023/05/15 12:39:04;;;;;;;;;;;24.60;56.90;;;;;;5044124;28;19952;-83
2023/05/15 12:41:30;;;;;;;;;;;24.60;56.90;;;;;;5045986;28;19916;-83
2023/05/15 12:43:55;;;;;;;;;;;24.60;57.00;;;;;;5046458;28;19978;-83
2023/05/15 12:46:22;;;;;;;;;;;24.60;56.90;;;;;;5044933;28;19908;-84
2023/05/15 12:48:48;;;;;;;;;;;24.60;57.00;;;;;;5063813;28;19989;-83
2023/05/15 12:51:15;;;;;;;;;;;24.60;57.00;;;;;;5061233;28;20041;-83
2023/05/15 12:53:41;;;;;;;;;;;24.60;57.00;;;;;;5062018;28;20283;-84
2023/05/15 12:56:07;;;;;;;;;;;24.60;57.00;;;;;;5061726;28;19939;-83
2023/05/15 12:58:33;;;;;;;;;;;24.60;57.00;;;;;;5059854;28;20052;-83
2023/05/15 13:01:01;;;;;;;;;;;24.60;57.00;;;;;;5044207;28;20352;-83
2023/05/15 13:03:27;;;;;;;;;;;24.60;57.00;;;;;;5044499;28;19967;-83
2023/05/15 13:05:53;;;;;;;;;;;24.60;57.10;;;;;;5044390;28;19909;-82
2023/05/15 13:08:19;;;;;;;;;;;24.60;57.10;;;;;;5045317;28;19920;-83
2023/05/15 13:10:46;;;;;;;;;;;24.60;57.10;;;;;;5061110;28;19944;-83
2023/05/15 13:13:11;;;;;;;;;;;24.60;57.20;;;;;;5045449;28;19919;-82
2023/05/15 13:15:38;;;;;;;;;;;24.50;57.10;;;;;;5061988;28;19917;-83
2023/05/15 13:18:05;;;;;;;;;;;24.50;57.20;;;;;;5062240;28;19921;-83
2023/05/15 13:20:32;;;;;;;;;;;24.50;57.30;;;;;;5058836;28;20004;-83
2023/05/15 13:22:59;;;;;;;;;;;24.50;57.40;;;;;;5058915;28;19909;-83
2023/05/15 13:25:24;;;;;;;;;;;24.50;57.30;;;;;;5043743;28;19909;-83
2023/05/15 13:27:50;;;;;;;;;;;24.50;57.40;;;;;;5058932;28;19938;-83
2023/05/15 13:30:17;;;;;;;;;;;24.50;57.50;;;;;;5041034;28;20002;-83
2023/05/15 13:32:42;;;;;;;;;;;24.50;57.50;;;;;;5061206;28;20256;-83
2023/05/15 13:35:09;;;;;;;;;;;24.40;57.50;;;;;;5061491;28;19919;-83
2023/05/15 13:37:35;;;;;;;;;;;24.40;57.60;;;;;;5062100;28;19924;-83
2023/05/15 13:40:00;;;;;;;;;;;24.40;57.70;;;;;;5044029;28;20028;-83
2023/05/15 13:42:26;;;;;;;;;;;24.40;57.70;;;;;;5062764;28;20029;-83
2023/05/15 13:44:51;;;;;;;;;;;24.40;57.70;;;;;;5046534;28;19909;-83
2023/05/15 13:47:18;;;;;;;;;;;24.40;57.80;;;;;;5060777;28;19998;-83
2023/05/15 13:49:44;;;;;;;;;;;24.40;57.90;;;;;;5060024;28;20012;-83
2023/05/15 13:52:10;;;;;;;;;;;24.40;57.90;;;;;;5044559;28;19913;-83
2023/05/15 13:54:35;;;;;;;;;;;24.40;57.90;;;;;;5046985;28;19919;-83
2023/05/15 13:57:01;;;;;;;;;;;24.40;57.90;;;;;;5060268;28;19917;-83
2023/05/15 13:59:26;;;;;;;;;;;24.40;57.90;;;;;;5044601;28;19974;-83
2023/05/15 14:01:52;;;;;;;;;;;24.40;58.00;;;;;;5062792;28;20092;-83
2023/05/15 14:04:17;;;;;;;;;;;24.40;57.90;;;;;;5059862;28;19920;-82
2023/05/15 14:06:43;;;;;;;;;;;24.40;58.00;;;;;;5044562;28;19908;-82
2023/05/15 14:09:09;;;;;;;;;;;24.40;58.00;;;;;;5043689;28;19986;-83
2023/05/15 14:11:34;;;;;;;;;;;24.30;58.10;;;;;;5041613;28;19991;-83
2023/05/15 14:14:00;;;;;;;;;;;24.40;58.10;;;;;;5044116;28;19909;-83